sensor_id;sensor_type;location;lat;lon;timestamp;temperature;humidity
20712;DHT22;10517;50.742;4.224;2022-12-20T00:00:26;12.40;99.90
20712;DHT22;10517;50.742;4.224;2022-12-20T00:02:52;12.40;99.90
20712;DHT22;10517;50.742;4.224;2022-12-20T00:05:17;12.30;99.90
20712;DHT22;10517;50.742;4.224;2022-12-20T00:07:43;12.30;99.90
20712;DHT22;10517;50.742;4.224;2022-12-20T00:10:09;12.30;99.90
20712;DHT22;10517;50.742;4.224;2022-12-20T00:12:34;12.30;99.90
20712;DHT22;10517;50.742;4.224;2022-12-20T00:15:00;12.40;99.90
20712;DHT22;10517;50.742;4.224;2022-12-20T00:17:26;12.30;99.90
20712;DHT22;10517;50.742;4.224;2022-12-20T00:19:51;12.30;99.90
20712;DHT22;10517;50.742;4.224;2022-12-20T00:22:17;12.30;99.90
20712;DHT22;10517;50.742;4.224;2022-12-20T00:24:42;12.30;99.90
20712;DHT22;10517;50.742;4.224;2022-12-20T00:27:08;12.30;99.90
20712;DHT22;10517;50.742;4.224;2022-12-20T00:29:34;12.30;99.90
20712;DHT22;10517;50.742;4.224;2022-12-20T00:31:59;12.30;99.90
20712;DHT22;10517;50.742;4.224;2022-12-20T00:34:25;12.30;99.90
20712;DHT22;10517;50.742;4.224;2022-12-20T00:36:50;12.40;99.90
20712;DHT22;10517;50.742;4.224;2022-12-20T00:39:16;12.40;99.90
20712;DHT22;10517;50.742;4.224;2022-12-20T00:41:41;12.40;99.90
20712;DHT22;10517;50.742;4.224;2022-12-20T00:44:07;12.40;99.90
20712;DHT22;10517;50.742;4.224;2022-12-20T00:46:33;12.40;99.90
20712;DHT22;10517;50.742;4.224;2022-12-20T00:48:59;12.40;99.90
20712;DHT22;10517;50.742;4.224;2022-12-20T00:51:27;12.40;99.90
20712;DHT22;10517;50.742;4.224;2022-12-20T00:53:54;12.40;99.90
20712;DHT22;10517;50.742;4.224;2022-12-20T00:56:21;12.40;99.90
20712;DHT22;10517;50.742;4.224;2022-12-20T00:58:46;12.30;99.90
20712;DHT22;10517;50.742;4.224;2022-12-20T01:01:22;12.30;99.90
20712;DHT22;10517;50.742;4.224;2022-12-20T01:03:49;12.20;99.90
20712;DHT22;10517;50.742;4.224;2022-12-20T01:06:15;12.20;99.90
20712;DHT22;10517;50.742;4.224;2022-12-20T01:08:41;12.20;99.90
20712;DHT22;10517;50.742;4.224;2022-12-20T01:13:36;12.20;99.90
20712;DHT22;10517;50.742;4.224;2022-12-20T01:16:23;12.20;99.90
20712;DHT22;10517;50.742;4.224;2022-12-20T01:18:49;12.10;99.90
20712;DHT22;10517;50.742;4.224;2022-12-20T01:21:16;12.20;99.90
20712;DHT22;10517;50.742;4.224;2022-12-20T01:23:42;12.10;99.90
20712;DHT22;10517;50.742;4.224;2022-12-20T01:26:15;12.10;99.90
20712;DHT22;10517;50.742;4.224;2022-12-20T01:28:43;12.10;99.90
20712;DHT22;10517;50.742;4.224;2022-12-20T01:31:14;12.10;99.90
20712;DHT22;10517;50.742;4.224;2022-12-20T01:33:40;12.20;99.90
20712;DHT22;10517;50.742;4.224;2022-12-20T01:36:10;12.10;99.90
20712;DHT22;10517;50.742;4.224;2022-12-20T01:38:35;12.10;99.90
20712;DHT22;10517;50.742;4.224;2022-12-20T01:41:02;12.00;99.90
20712;DHT22;10517;50.742;4.224;2022-12-20T01:46:41;11.90;99.90
20712;DHT22;10517;50.742;4.224;2022-12-20T01:49:18;11.90;99.90
20712;DHT22;10517;50.742;4.224;2022-12-20T01:51:59;11.90;99.90
20712;DHT22;10517;50.742;4.224;2022-12-20T01:54:28;11.90;99.90
20712;DHT22;10517;50.742;4.224;2022-12-20T01:56:58;11.90;99.90
20712;DHT22;10517;50.742;4.224;2022-12-20T01:59:26;11.90;99.90
20712;DHT22;10517;50.742;4.224;2022-12-20T02:01:54;12.00;99.90
20712;DHT22;10517;50.742;4.224;2022-12-20T02:04:22;11.90;99.90
20712;DHT22;10517;50.742;4.224;2022-12-20T02:06:47;12.00;99.90
20712;DHT22;10517;50.742;4.224;2022-12-20T02:09:13;12.00;99.90
20712;DHT22;10517;50.742;4.224;2022-12-20T02:12:08;12.00;99.90
20712;DHT22;10517;50.742;4.224;2022-12-20T02:20:30;12.10;99.90
20712;DHT22;10517;50.742;4.224;2022-12-20T02:30:41;12.30;99.90
20712;DHT22;10517;50.742;4.224;2022-12-20T02:33:13;12.30;99.90
20712;DHT22;10517;50.742;4.224;2022-12-20T02:35:40;12.30;99.90
20712;DHT22;10517;50.742;4.224;2022-12-20T02:38:27;12.30;99.90
20712;DHT22;10517;50.742;4.224;2022-12-20T02:40:58;12.30;99.90
20712;DHT22;10517;50.742;4.224;2022-12-20T02:43:26;12.40;99.90
20712;DHT22;10517;50.742;4.224;2022-12-20T02:46:31;12.40;99.90
20712;DHT22;10517;50.742;4.224;2022-12-20T02:49:04;12.40;99.90
20712;DHT22;10517;50.742;4.224;2022-12-20T02:51:31;12.40;99.90
20712;DHT22;10517;50.742;4.224;2022-12-20T02:53:58;12.40;99.90
20712;DHT22;10517;50.742;4.224;2022-12-20T02:56:37;12.40;99.90
20712;DHT22;10517;50.742;4.224;2022-12-20T02:59:12;12.40;99.90
20712;DHT22;10517;50.742;4.224;2022-12-20T03:01:43;12.40;99.90
20712;DHT22;10517;50.742;4.224;2022-12-20T03:04:10;12.40;99.90
20712;DHT22;10517;50.742;4.224;2022-12-20T03:06:38;12.30;99.90
20712;DHT22;10517;50.742;4.224;2022-12-20T03:09:04;12.30;99.90
20712;DHT22;10517;50.742;4.224;2022-12-20T03:11:29;12.30;99.90
20712;DHT22;10517;50.742;4.224;2022-12-20T03:13:55;12.30;99.90
20712;DHT22;10517;50.742;4.224;2022-12-20T03:16:21;12.30;99.90
20712;DHT22;10517;50.742;4.224;2022-12-20T03:18:47;12.30;99.90
20712;DHT22;10517;50.742;4.224;2022-12-20T03:21:12;12.40;99.90
20712;DHT22;10517;50.742;4.224;2022-12-20T03:23:38;12.40;99.90
20712;DHT22;10517;50.742;4.224;2022-12-20T03:26:04;12.40;99.90
20712;DHT22;10517;50.742;4.224;2022-12-20T03:28:29;12.40;99.90
20712;DHT22;10517;50.742;4.224;2022-12-20T03:30:55;12.40;99.90
20712;DHT22;10517;50.742;4.224;2022-12-20T03:33:20;12.50;99.90
20712;DHT22;10517;50.742;4.224;2022-12-20T03:35:46;12.40;99.90
20712;DHT22;10517;50.742;4.224;2022-12-20T03:38:12;12.40;99.90
20712;DHT22;10517;50.742;4.224;2022-12-20T03:40:38;12.30;99.90
20712;DHT22;10517;50.742;4.224;2022-12-20T03:43:03;12.10;99.90
20712;DHT22;10517;50.742;4.224;2022-12-20T03:45:29;12.20;99.90
20712;DHT22;10517;50.742;4.224;2022-12-20T03:47:55;12.20;99.90
20712;DHT22;10517;50.742;4.224;2022-12-20T03:50:20;12.10;99.90
20712;DHT22;10517;50.742;4.224;2022-12-20T03:52:46;12.20;99.90
20712;DHT22;10517;50.742;4.224;2022-12-20T03:55:11;12.10;99.90
20712;DHT22;10517;50.742;4.224;2022-12-20T03:57:38;12.20;99.90
20712;DHT22;10517;50.742;4.224;2022-12-20T04:00:04;12.10;99.90
20712;DHT22;10517;50.742;4.224;2022-12-20T04:02:31;12.20;99.90
20712;DHT22;10517;50.742;4.224;2022-12-20T04:04:56;12.20;99.90
20712;DHT22;10517;50.742;4.224;2022-12-20T04:07:22;12.20;99.90
20712;DHT22;10517;50.742;4.224;2022-12-20T04:09:47;12.20;99.90
20712;DHT22;10517;50.742;4.224;2022-12-20T04:12:13;12.20;99.90
20712;DHT22;10517;50.742;4.224;2022-12-20T04:14:39;12.20;99.90
20712;DHT22;10517;50.742;4.224;2022-12-20T04:17:04;12.20;99.90
20712;DHT22;10517;50.742;4.224;2022-12-20T04:19:30;12.20;99.90
20712;DHT22;10517;50.742;4.224;2022-12-20T04:21:55;12.20;99.90
20712;DHT22;10517;50.742;4.224;2022-12-20T04:24:23;12.30;99.90
20712;DHT22;10517;50.742;4.224;2022-12-20T04:26:48;12.20;99.90
20712;DHT22;10517;50.742;4.224;2022-12-20T04:29:14;12.30;99.90
20712;DHT22;10517;50.742;4.224;2022-12-20T04:31:40;12.30;99.90
20712;DHT22;10517;50.742;4.224;2022-12-20T04:34:06;12.30;99.90
20712;DHT22;10517;50.742;4.224;2022-12-20T04:36:32;12.40;99.90
20712;DHT22;10517;50.742;4.224;2022-12-20T04:38:58;12.40;99.90
20712;DHT22;10517;50.742;4.224;2022-12-20T04:41:23;12.40;99.90
20712;DHT22;10517;50.742;4.224;2022-12-20T04:43:50;12.30;99.90
20712;DHT22;10517;50.742;4.224;2022-12-20T04:46:17;12.40;99.90
20712;DHT22;10517;50.742;4.224;2022-12-20T04:48:43;12.40;99.90
20712;DHT22;10517;50.742;4.224;2022-12-20T04:51:09;12.40;99.90
20712;DHT22;10517;50.742;4.224;2022-12-20T04:53:34;12.40;99.90
20712;DHT22;10517;50.742;4.224;2022-12-20T04:56:23;12.30;99.90
20712;DHT22;10517;50.742;4.224;2022-12-20T04:58:51;12.30;99.90
20712;DHT22;10517;50.742;4.224;2022-12-20T05:01:18;12.20;99.90
20712;DHT22;10517;50.742;4.224;2022-12-20T05:03:44;12.20;99.90
20712;DHT22;10517;50.742;4.224;2022-12-20T05:06:10;12.20;99.90
20712;DHT22;10517;50.742;4.224;2022-12-20T05:08:36;12.20;99.90
20712;DHT22;10517;50.742;4.224;2022-12-20T05:11:03;12.20;99.90
20712;DHT22;10517;50.742;4.224;2022-12-20T05:13:28;12.20;99.90
20712;DHT22;10517;50.742;4.224;2022-12-20T05:15:55;12.20;99.90
20712;DHT22;10517;50.742;4.224;2022-12-20T05:18:21;12.20;99.90
20712;DHT22;10517;50.742;4.224;2022-12-20T05:20:48;12.20;99.90
20712;DHT22;10517;50.742;4.224;2022-12-20T05:23:33;12.20;99.90
20712;DHT22;10517;50.742;4.224;2022-12-20T05:26:18;12.20;99.90
20712;DHT22;10517;50.742;4.224;2022-12-20T05:28:43;12.20;99.90
20712;DHT22;10517;50.742;4.224;2022-12-20T05:31:09;12.20;99.90
20712;DHT22;10517;50.742;4.224;2022-12-20T05:33:35;12.20;99.90
20712;DHT22;10517;50.742;4.224;2022-12-20T05:36:01;12.20;99.90
20712;DHT22;10517;50.742;4.224;2022-12-20T05:38:26;12.20;99.90
20712;DHT22;10517;50.742;4.224;2022-12-20T05:40:52;12.20;99.90
20712;DHT22;10517;50.742;4.224;2022-12-20T05:43:18;12.20;99.90
20712;DHT22;10517;50.742;4.224;2022-12-20T05:45:50;12.30;99.90
20712;DHT22;10517;50.742;4.224;2022-12-20T05:48:16;12.30;99.90
20712;DHT22;10517;50.742;4.224;2022-12-20T05:50:42;12.30;99.90
20712;DHT22;10517;50.742;4.224;2022-12-20T05:53:12;12.30;99.90
20712;DHT22;10517;50.742;4.224;2022-12-20T05:55:48;12.30;99.90
20712;DHT22;10517;50.742;4.224;2022-12-20T05:58:14;12.30;99.90
20712;DHT22;10517;50.742;4.224;2022-12-20T06:00:40;12.40;99.90
20712;DHT22;10517;50.742;4.224;2022-12-20T06:03:07;12.40;99.90
20712;DHT22;10517;50.742;4.224;2022-12-20T06:05:37;12.40;99.90
20712;DHT22;10517;50.742;4.224;2022-12-20T06:08:04;12.40;99.90
20712;DHT22;10517;50.742;4.224;2022-12-20T06:10:30;12.50;99.90
20712;DHT22;10517;50.742;4.224;2022-12-20T06:12:55;12.50;99.90
20712;DHT22;10517;50.742;4.224;2022-12-20T06:15:21;12.50;99.90
20712;DHT22;10517;50.742;4.224;2022-12-20T06:17:46;12.60;99.90
20712;DHT22;10517;50.742;4.224;2022-12-20T06:20:12;12.60;99.90
20712;DHT22;10517;50.742;4.224;2022-12-20T06:22:38;12.60;99.90
20712;DHT22;10517;50.742;4.224;2022-12-20T06:25:04;12.60;99.90
20712;DHT22;10517;50.742;4.224;2022-12-20T06:27:30;12.60;99.90
20712;DHT22;10517;50.742;4.224;2022-12-20T06:29:56;12.60;99.90
20712;DHT22;10517;50.742;4.224;2022-12-20T06:32:21;12.70;99.90
20712;DHT22;10517;50.742;4.224;2022-12-20T06:34:47;12.60;99.90
20712;DHT22;10517;50.742;4.224;2022-12-20T06:37:12;12.70;99.90
20712;DHT22;10517;50.742;4.224;2022-12-20T06:39:38;12.60;99.90
20712;DHT22;10517;50.742;4.224;2022-12-20T06:42:04;12.70;99.90
20712;DHT22;10517;50.742;4.224;2022-12-20T06:44:29;12.70;99.90
20712;DHT22;10517;50.742;4.224;2022-12-20T06:46:55;12.80;99.90
20712;DHT22;10517;50.742;4.224;2022-12-20T06:49:20;12.70;99.90
20712;DHT22;10517;50.742;4.224;2022-12-20T06:51:47;12.70;99.90
20712;DHT22;10517;50.742;4.224;2022-12-20T06:54:12;12.60;99.90
20712;DHT22;10517;50.742;4.224;2022-12-20T06:56:38;12.60;99.90
20712;DHT22;10517;50.742;4.224;2022-12-20T06:59:04;12.50;99.90
20712;DHT22;10517;50.742;4.224;2022-12-20T07:01:30;12.40;99.90
20712;DHT22;10517;50.742;4.224;2022-12-20T07:03:55;12.40;99.90
20712;DHT22;10517;50.742;4.224;2022-12-20T07:06:21;12.30;99.90
20712;DHT22;10517;50.742;4.224;2022-12-20T07:08:46;12.20;99.90
20712;DHT22;10517;50.742;4.224;2022-12-20T07:11:12;12.20;99.90
20712;DHT22;10517;50.742;4.224;2022-12-20T07:13:38;12.00;99.90
20712;DHT22;10517;50.742;4.224;2022-12-20T07:16:04;11.90;99.90
20712;DHT22;10517;50.742;4.224;2022-12-20T07:18:30;11.80;99.90
20712;DHT22;10517;50.742;4.224;2022-12-20T07:21:04;11.70;99.90
20712;DHT22;10517;50.742;4.224;2022-12-20T07:23:30;11.60;99.90
20712;DHT22;10517;50.742;4.224;2022-12-20T07:25:58;11.60;99.90
20712;DHT22;10517;50.742;4.224;2022-12-20T07:28:24;11.50;99.90
20712;DHT22;10517;50.742;4.224;2022-12-20T07:30:50;11.40;99.90
20712;DHT22;10517;50.742;4.224;2022-12-20T07:33:16;11.30;99.90
20712;DHT22;10517;50.742;4.224;2022-12-20T07:35:42;11.30;99.90
20712;DHT22;10517;50.742;4.224;2022-12-20T07:38:10;11.20;99.90
20712;DHT22;10517;50.742;4.224;2022-12-20T07:40:39;11.10;99.90
20712;DHT22;10517;50.742;4.224;2022-12-20T07:43:06;11.10;99.90
20712;DHT22;10517;50.742;4.224;2022-12-20T07:45:32;11.10;99.90
20712;DHT22;10517;50.742;4.224;2022-12-20T07:47:58;11.00;99.90
20712;DHT22;10517;50.742;4.224;2022-12-20T07:50:25;11.00;99.90
20712;DHT22;10517;50.742;4.224;2022-12-20T07:52:52;11.00;99.90
20712;DHT22;10517;50.742;4.224;2022-12-20T07:55:18;11.10;99.90
20712;DHT22;10517;50.742;4.224;2022-12-20T07:57:55;11.00;99.90
20712;DHT22;10517;50.742;4.224;2022-12-20T08:00:21;11.00;99.90
20712;DHT22;10517;50.742;4.224;2022-12-20T08:03:04;11.00;99.90
20712;DHT22;10517;50.742;4.224;2022-12-20T08:05:32;11.00;99.90
20712;DHT22;10517;50.742;4.224;2022-12-20T08:07:58;11.00;99.90
20712;DHT22;10517;50.742;4.224;2022-12-20T08:10:26;11.00;99.90
20712;DHT22;10517;50.742;4.224;2022-12-20T08:12:52;11.00;99.90
20712;DHT22;10517;50.742;4.224;2022-12-20T08:15:18;11.00;99.90
20712;DHT22;10517;50.742;4.224;2022-12-20T08:17:45;11.00;99.90
20712;DHT22;10517;50.742;4.224;2022-12-20T08:20:11;11.00;99.90
20712;DHT22;10517;50.742;4.224;2022-12-20T08:22:37;11.00;99.90
20712;DHT22;10517;50.742;4.224;2022-12-20T08:25:02;11.10;99.90
20712;DHT22;10517;50.742;4.224;2022-12-20T08:27:29;11.10;99.90
20712;DHT22;10517;50.742;4.224;2022-12-20T08:29:54;11.10;99.90
20712;DHT22;10517;50.742;4.224;2022-12-20T08:32:20;11.10;99.90
20712;DHT22;10517;50.742;4.224;2022-12-20T08:34:46;11.10;99.90
20712;DHT22;10517;50.742;4.224;2022-12-20T08:37:15;11.10;99.90
20712;DHT22;10517;50.742;4.224;2022-12-20T08:39:41;11.20;99.90
20712;DHT22;10517;50.742;4.224;2022-12-20T08:42:07;11.30;99.90
20712;DHT22;10517;50.742;4.224;2022-12-20T08:44:32;11.30;99.90
20712;DHT22;10517;50.742;4.224;2022-12-20T08:46:58;11.30;99.90
20712;DHT22;10517;50.742;4.224;2022-12-20T08:49:23;11.40;99.90
20712;DHT22;10517;50.742;4.224;2022-12-20T08:51:49;11.40;99.90
20712;DHT22;10517;50.742;4.224;2022-12-20T08:54:14;11.40;99.90
20712;DHT22;10517;50.742;4.224;2022-12-20T08:56:42;11.30;99.90
20712;DHT22;10517;50.742;4.224;2022-12-20T08:59:07;11.30;99.90
20712;DHT22;10517;50.742;4.224;2022-12-20T09:01:33;11.40;99.90
20712;DHT22;10517;50.742;4.224;2022-12-20T09:03:59;11.40;99.90
20712;DHT22;10517;50.742;4.224;2022-12-20T09:06:25;11.40;99.90
20712;DHT22;10517;50.742;4.224;2022-12-20T09:08:51;11.40;99.90
20712;DHT22;10517;50.742;4.224;2022-12-20T09:11:23;11.50;99.90
20712;DHT22;10517;50.742;4.224;2022-12-20T09:13:51;11.60;99.90
20712;DHT22;10517;50.742;4.224;2022-12-20T09:16:19;11.60;99.90
20712;DHT22;10517;50.742;4.224;2022-12-20T09:18:53;11.60;99.90
20712;DHT22;10517;50.742;4.224;2022-12-20T09:21:20;11.70;99.90
20712;DHT22;10517;50.742;4.224;2022-12-20T09:23:46;11.60;99.90
20712;DHT22;10517;50.742;4.224;2022-12-20T09:26:14;11.60;99.90
20712;DHT22;10517;50.742;4.224;2022-12-20T09:28:41;11.60;99.90
20712;DHT22;10517;50.742;4.224;2022-12-20T09:31:10;11.60;99.90
20712;DHT22;10517;50.742;4.224;2022-12-20T09:33:36;11.60;99.90
20712;DHT22;10517;50.742;4.224;2022-12-20T09:36:04;11.60;99.90
20712;DHT22;10517;50.742;4.224;2022-12-20T09:38:30;11.60;99.90
20712;DHT22;10517;50.742;4.224;2022-12-20T09:40:59;11.40;99.90
20712;DHT22;10517;50.742;4.224;2022-12-20T09:43:26;11.40;99.90
20712;DHT22;10517;50.742;4.224;2022-12-20T09:45:55;11.30;99.90
20712;DHT22;10517;50.742;4.224;2022-12-20T09:48:37;11.40;99.90
20712;DHT22;10517;50.742;4.224;2022-12-20T09:56:34;11.30;99.90
20712;DHT22;10517;50.742;4.224;2022-12-20T09:59:13;11.20;99.90
20712;DHT22;10517;50.742;4.224;2022-12-20T10:01:43;11.30;99.90
20712;DHT22;10517;50.742;4.224;2022-12-20T10:04:23;11.30;99.90
20712;DHT22;10517;50.742;4.224;2022-12-20T10:12:23;11.30;99.90
20712;DHT22;10517;50.742;4.224;2022-12-20T10:15:18;11.30;99.90
20712;DHT22;10517;50.742;4.224;2022-12-20T10:17:56;11.40;99.90
20712;DHT22;10517;50.742;4.224;2022-12-20T10:25:56;11.30;99.90
20712;DHT22;10517;50.742;4.224;2022-12-20T10:28:32;11.30;99.90
20712;DHT22;10517;50.742;4.224;2022-12-20T10:31:00;11.40;99.90
20712;DHT22;10517;50.742;4.224;2022-12-20T10:33:29;11.40;99.90
20712;DHT22;10517;50.742;4.224;2022-12-20T10:35:55;11.40;99.90
20712;DHT22;10517;50.742;4.224;2022-12-20T10:38:51;11.30;99.90
20712;DHT22;10517;50.742;4.224;2022-12-20T10:41:20;11.40;99.90
20712;DHT22;10517;50.742;4.224;2022-12-20T10:43:52;11.40;99.90
20712;DHT22;10517;50.742;4.224;2022-12-20T10:46:20;11.40;99.90
20712;DHT22;10517;50.742;4.224;2022-12-20T10:48:47;11.40;99.90
20712;DHT22;10517;50.742;4.224;2022-12-20T10:51:15;11.40;99.90
20712;DHT22;10517;50.742;4.224;2022-12-20T10:54:00;11.40;99.90
20712;DHT22;10517;50.742;4.224;2022-12-20T10:56:27;11.30;99.90
20712;DHT22;10517;50.742;4.224;2022-12-20T11:01:43;11.30;99.90
20712;DHT22;10517;50.742;4.224;2022-12-20T11:04:30;11.40;99.90
20712;DHT22;10517;50.742;4.224;2022-12-20T11:06:58;11.30;99.90
20712;DHT22;10517;50.742;4.224;2022-12-20T11:09:28;11.30;99.90
20712;DHT22;10517;50.742;4.224;2022-12-20T11:12:02;11.30;99.90
20712;DHT22;10517;50.742;4.224;2022-12-20T11:14:29;11.30;99.90
20712;DHT22;10517;50.742;4.224;2022-12-20T11:16:56;11.30;99.90
20712;DHT22;10517;50.742;4.224;2022-12-20T11:24:39;11.40;99.90
20712;DHT22;10517;50.742;4.224;2022-12-20T11:27:19;11.40;99.90
20712;DHT22;10517;50.742;4.224;2022-12-20T11:30:18;11.50;99.90
20712;DHT22;10517;50.742;4.224;2022-12-20T11:38:29;11.30;99.90
20712;DHT22;10517;50.742;4.224;2022-12-20T11:49:11;11.20;99.90
20712;DHT22;10517;50.742;4.224;2022-12-20T11:54:46;11.10;99.90
20712;DHT22;10517;50.742;4.224;2022-12-20T12:00:04;11.00;99.90
20712;DHT22;10517;50.742;4.224;2022-12-20T12:02:37;10.90;99.90
20712;DHT22;10517;50.742;4.224;2022-12-20T12:07:50;11.00;99.90
20712;DHT22;10517;50.742;4.224;2022-12-20T12:10:29;10.90;99.90
20712;DHT22;10517;50.742;4.224;2022-12-20T12:13:05;11.00;99.90
20712;DHT22;10517;50.742;4.224;2022-12-20T12:18:30;11.00;99.90
20712;DHT22;10517;50.742;4.224;2022-12-20T12:26:35;10.90;99.90
20712;DHT22;10517;50.742;4.224;2022-12-20T12:29:05;10.90;99.90
20712;DHT22;10517;50.742;4.224;2022-12-20T12:36:49;10.80;99.90
20712;DHT22;10517;50.742;4.224;2022-12-20T12:39:29;10.90;99.90
20712;DHT22;10517;50.742;4.224;2022-12-20T12:42:11;10.90;99.90
20712;DHT22;10517;50.742;4.224;2022-12-20T12:45:02;10.90;99.90
20712;DHT22;10517;50.742;4.224;2022-12-20T12:47:53;10.80;99.90
20712;DHT22;10517;50.742;4.224;2022-12-20T12:50:32;10.80;99.90
20712;DHT22;10517;50.742;4.224;2022-12-20T12:53:21;10.90;99.90
20712;DHT22;10517;50.742;4.224;2022-12-20T12:55:50;10.90;99.90
20712;DHT22;10517;50.742;4.224;2022-12-20T13:00:53;10.90;99.90
20712;DHT22;10517;50.742;4.224;2022-12-20T13:11:34;11.00;99.90
20712;DHT22;10517;50.742;4.224;2022-12-20T13:16:49;11.00;99.90
20712;DHT22;10517;50.742;4.224;2022-12-20T13:21:57;11.00;99.90
20712;DHT22;10517;50.742;4.224;2022-12-20T13:27:16;11.10;99.90
20712;DHT22;10517;50.742;4.224;2022-12-20T13:40:55;11.00;99.90
20712;DHT22;10517;50.742;4.224;2022-12-20T13:46:03;11.10;99.90
20712;DHT22;10517;50.742;4.224;2022-12-20T13:51:38;11.10;99.90
20712;DHT22;10517;50.742;4.224;2022-12-20T13:54:06;11.10;99.90
20712;DHT22;10517;50.742;4.224;2022-12-20T13:56:43;11.10;99.90
20712;DHT22;10517;50.742;4.224;2022-12-20T13:59:21;11.10;99.90
20712;DHT22;10517;50.742;4.224;2022-12-20T14:01:51;11.10;99.90
20712;DHT22;10517;50.742;4.224;2022-12-20T14:04:18;11.10;99.90
20712;DHT22;10517;50.742;4.224;2022-12-20T14:06:51;11.10;99.90
20712;DHT22;10517;50.742;4.224;2022-12-20T14:09:32;11.10;99.90
20712;DHT22;10517;50.742;4.224;2022-12-20T14:12:06;11.00;99.90
20712;DHT22;10517;50.742;4.224;2022-12-20T14:14:47;11.00;99.90
20712;DHT22;10517;50.742;4.224;2022-12-20T14:22:52;11.10;99.90
20712;DHT22;10517;50.742;4.224;2022-12-20T14:25:30;11.10;99.90
20712;DHT22;10517;50.742;4.224;2022-12-20T14:27:57;11.10;99.90
20712;DHT22;10517;50.742;4.224;2022-12-20T14:30:32;11.10;99.90
20712;DHT22;10517;50.742;4.224;2022-12-20T14:32:59;11.20;99.90
20712;DHT22;10517;50.742;4.224;2022-12-20T14:35:25;11.20;99.90
20712;DHT22;10517;50.742;4.224;2022-12-20T14:37:53;11.20;99.90
20712;DHT22;10517;50.742;4.224;2022-12-20T14:40:20;11.20;99.90
20712;DHT22;10517;50.742;4.224;2022-12-20T14:42:46;11.20;99.90
20712;DHT22;10517;50.742;4.224;2022-12-20T14:47:40;11.20;99.90
20712;DHT22;10517;50.742;4.224;2022-12-20T14:50:31;11.10;99.90
20712;DHT22;10517;50.742;4.224;2022-12-20T14:52:57;11.10;99.90
20712;DHT22;10517;50.742;4.224;2022-12-20T14:55:30;11.00;99.90
20712;DHT22;10517;50.742;4.224;2022-12-20T14:57:57;11.00;99.90
20712;DHT22;10517;50.742;4.224;2022-12-20T15:00:27;11.00;99.90
20712;DHT22;10517;50.742;4.224;2022-12-20T15:08:21;10.90;99.90
20712;DHT22;10517;50.742;4.224;2022-12-20T15:13:38;10.90;99.90
20712;DHT22;10517;50.742;4.224;2022-12-20T15:16:25;10.90;99.90
20712;DHT22;10517;50.742;4.224;2022-12-20T15:18:56;10.90;99.90
20712;DHT22;10517;50.742;4.224;2022-12-20T15:21:48;11.00;99.90
20712;DHT22;10517;50.742;4.224;2022-12-20T15:24:18;11.00;99.90
20712;DHT22;10517;50.742;4.224;2022-12-20T15:26:46;11.00;99.90
20712;DHT22;10517;50.742;4.224;2022-12-20T15:29:16;11.00;99.90
20712;DHT22;10517;50.742;4.224;2022-12-20T15:31:43;11.00;99.90
20712;DHT22;10517;50.742;4.224;2022-12-20T15:34:29;11.00;99.90
20712;DHT22;10517;50.742;4.224;2022-12-20T15:36:56;11.00;99.90
20712;DHT22;10517;50.742;4.224;2022-12-20T15:39:25;10.90;99.90
20712;DHT22;10517;50.742;4.224;2022-12-20T15:41:51;10.90;99.90
20712;DHT22;10517;50.742;4.224;2022-12-20T15:44:19;11.00;99.90
20712;DHT22;10517;50.742;4.224;2022-12-20T15:46:45;10.90;99.90
20712;DHT22;10517;50.742;4.224;2022-12-20T15:49:19;10.90;99.90
20712;DHT22;10517;50.742;4.224;2022-12-20T15:51:47;10.90;99.90
20712;DHT22;10517;50.742;4.224;2022-12-20T15:56:54;10.90;99.90
20712;DHT22;10517;50.742;4.224;2022-12-20T15:59:20;10.90;99.90
20712;DHT22;10517;50.742;4.224;2022-12-20T16:01:46;10.90;99.90
20712;DHT22;10517;50.742;4.224;2022-12-20T16:04:18;10.90;99.90
20712;DHT22;10517;50.742;4.224;2022-12-20T16:06:46;11.00;99.90
20712;DHT22;10517;50.742;4.224;2022-12-20T16:09:14;11.00;99.90
20712;DHT22;10517;50.742;4.224;2022-12-20T16:11:40;10.90;99.90
20712;DHT22;10517;50.742;4.224;2022-12-20T16:14:09;10.90;99.90
20712;DHT22;10517;50.742;4.224;2022-12-20T16:16:37;10.90;99.90
20712;DHT22;10517;50.742;4.224;2022-12-20T16:19:03;10.90;99.90
20712;DHT22;10517;50.742;4.224;2022-12-20T16:21:34;10.80;99.90
20712;DHT22;10517;50.742;4.224;2022-12-20T16:24:00;10.90;99.90
20712;DHT22;10517;50.742;4.224;2022-12-20T16:26:27;10.90;99.90
20712;DHT22;10517;50.742;4.224;2022-12-20T16:28:53;10.90;99.90
20712;DHT22;10517;50.742;4.224;2022-12-20T16:31:29;10.90;99.90
20712;DHT22;10517;50.742;4.224;2022-12-20T16:33:56;10.90;99.90
20712;DHT22;10517;50.742;4.224;2022-12-20T16:36:22;10.90;99.90
20712;DHT22;10517;50.742;4.224;2022-12-20T16:38:49;10.80;99.90
20712;DHT22;10517;50.742;4.224;2022-12-20T16:41:20;10.80;99.90
20712;DHT22;10517;50.742;4.224;2022-12-20T16:43:47;10.80;99.90
20712;DHT22;10517;50.742;4.224;2022-12-20T16:46:15;10.90;99.90
20712;DHT22;10517;50.742;4.224;2022-12-20T16:48:42;10.90;99.90
20712;DHT22;10517;50.742;4.224;2022-12-20T16:51:27;10.80;99.90
20712;DHT22;10517;50.742;4.224;2022-12-20T16:53:58;10.80;99.90
20712;DHT22;10517;50.742;4.224;2022-12-20T16:56:24;10.90;99.90
20712;DHT22;10517;50.742;4.224;2022-12-20T16:58:50;10.90;99.90
20712;DHT22;10517;50.742;4.224;2022-12-20T17:01:17;10.90;99.90
20712;DHT22;10517;50.742;4.224;2022-12-20T17:03:45;10.90;99.90
20712;DHT22;10517;50.742;4.224;2022-12-20T17:06:14;10.90;99.90
20712;DHT22;10517;50.742;4.224;2022-12-20T17:08:41;10.80;99.90
20712;DHT22;10517;50.742;4.224;2022-12-20T17:11:15;10.80;99.90
20712;DHT22;10517;50.742;4.224;2022-12-20T17:13:50;10.90;99.90
20712;DHT22;10517;50.742;4.224;2022-12-20T17:16:16;10.80;99.90
20712;DHT22;10517;50.742;4.224;2022-12-20T17:18:44;10.80;99.90
20712;DHT22;10517;50.742;4.224;2022-12-20T17:23:53;10.80;99.90
20712;DHT22;10517;50.742;4.224;2022-12-20T17:26:24;10.80;99.90
20712;DHT22;10517;50.742;4.224;2022-12-20T17:28:52;10.80;99.90
20712;DHT22;10517;50.742;4.224;2022-12-20T17:31:34;10.70;99.90
20712;DHT22;10517;50.742;4.224;2022-12-20T17:34:04;10.80;99.90
20712;DHT22;10517;50.742;4.224;2022-12-20T17:36:30;10.80;99.90
20712;DHT22;10517;50.742;4.224;2022-12-20T17:38:56;10.90;99.90
20712;DHT22;10517;50.742;4.224;2022-12-20T17:43:48;10.80;99.90
20712;DHT22;10517;50.742;4.224;2022-12-20T17:46:14;10.90;99.90
20712;DHT22;10517;50.742;4.224;2022-12-20T17:48:39;10.80;99.90
20712;DHT22;10517;50.742;4.224;2022-12-20T17:53:38;10.90;99.90
20712;DHT22;10517;50.742;4.224;2022-12-20T17:56:04;10.90;99.90
20712;DHT22;10517;50.742;4.224;2022-12-20T17:58:29;10.90;99.90
20712;DHT22;10517;50.742;4.224;2022-12-20T18:00:55;10.90;99.90
20712;DHT22;10517;50.742;4.224;2022-12-20T18:03:20;10.90;99.90